sensor_id;sensor_type;location;lat;lon;timestamp;P1;durP1;ratioP1;P2;durP2;ratioP2
7493;SDS011;3788;49.902;8.590;2024-02-21T00:00:44;8.87;;;4.37;;
7493;SDS011;3788;49.902;8.590;2024-02-21T00:03:11;9.93;;;4.63;;
7493;SDS011;3788;49.902;8.590;2024-02-21T00:05:38;8.57;;;4.27;;
7493;SDS011;3788;49.902;8.590;2024-02-21T00:08:04;9.20;;;4.87;;
7493;SDS011;3788;49.902;8.590;2024-02-21T00:10:31;10.10;;;4.73;;
7493;SDS011;3788;49.902;8.590;2024-02-21T00:12:59;10.33;;;4.80;;
7493;SDS011;3788;49.902;8.590;2024-02-21T00:15:26;7.57;;;4.70;;
7493;SDS011;3788;49.902;8.590;2024-02-21T00:17:53;7.83;;;4.83;;
7493;SDS011;3788;49.902;8.590;2024-02-21T00:20:20;8.57;;;4.40;;
7493;SDS011;3788;49.902;8.590;2024-02-21T00:22:46;10.33;;;5.00;;
7493;SDS011;3788;49.902;8.590;2024-02-21T00:25:13;9.23;;;5.50;;
7493;SDS011;3788;49.902;8.590;2024-02-21T00:27:39;9.80;;;5.10;;
7493;SDS011;3788;49.902;8.590;2024-02-21T00:30:08;7.93;;;5.13;;
7493;SDS011;3788;49.902;8.590;2024-02-21T00:32:36;9.80;;;5.60;;
7493;SDS011;3788;49.902;8.590;2024-02-21T00:35:02;13.30;;;6.03;;
7493;SDS011;3788;49.902;8.590;2024-02-21T00:37:30;10.80;;;5.50;;
7493;SDS011;3788;49.902;8.590;2024-02-21T00:39:57;9.93;;;5.70;;
7493;SDS011;3788;49.902;8.590;2024-02-21T00:42:24;13.90;;;6.40;;
7493;SDS011;3788;49.902;8.590;2024-02-21T00:44:50;14.20;;;5.93;;
7493;SDS011;3788;49.902;8.590;2024-02-21T00:47:18;9.07;;;5.17;;
7493;SDS011;3788;49.902;8.590;2024-02-21T00:49:45;10.30;;;5.57;;
7493;SDS011;3788;49.902;8.590;2024-02-21T00:52:11;10.40;;;5.50;;
7493;SDS011;3788;49.902;8.590;2024-02-21T00:54:38;13.73;;;6.40;;
7493;SDS011;3788;49.902;8.590;2024-02-21T00:57:05;11.23;;;5.80;;
7493;SDS011;3788;49.902;8.590;2024-02-21T00:59:31;8.90;;;5.53;;
7493;SDS011;3788;49.902;8.590;2024-02-21T01:01:58;9.60;;;5.40;;
7493;SDS011;3788;49.902;8.590;2024-02-21T01:04:26;10.83;;;5.93;;
7493;SDS011;3788;49.902;8.590;2024-02-21T01:06:52;9.73;;;5.90;;
7493;SDS011;3788;49.902;8.590;2024-02-21T01:09:19;12.07;;;6.30;;
7493;SDS011;3788;49.902;8.590;2024-02-21T01:11:45;11.43;;;6.77;;
7493;SDS011;3788;49.902;8.590;2024-02-21T01:14:12;10.73;;;5.60;;
7493;SDS011;3788;49.902;8.590;2024-02-21T01:16:39;8.43;;;5.83;;
7493;SDS011;3788;49.902;8.590;2024-02-21T01:19:06;7.80;;;5.67;;
7493;SDS011;3788;49.902;8.590;2024-02-21T01:21:33;18.07;;;5.63;;
7493;SDS011;3788;49.902;8.590;2024-02-21T01:24:00;8.50;;;4.97;;
7493;SDS011;3788;49.902;8.590;2024-02-21T01:26:27;8.90;;;5.23;;
7493;SDS011;3788;49.902;8.590;2024-02-21T01:28:53;11.87;;;5.97;;
7493;SDS011;3788;49.902;8.590;2024-02-21T01:31:20;10.80;;;5.17;;
7493;SDS011;3788;49.902;8.590;2024-02-21T01:33:46;10.77;;;5.67;;
7493;SDS011;3788;49.902;8.590;2024-02-21T01:36:13;11.30;;;5.33;;
7493;SDS011;3788;49.902;8.590;2024-02-21T01:38:41;10.17;;;6.17;;
7493;SDS011;3788;49.902;8.590;2024-02-21T01:41:08;10.77;;;4.63;;
7493;SDS011;3788;49.902;8.590;2024-02-21T01:43:34;9.33;;;5.47;;
7493;SDS011;3788;49.902;8.590;2024-02-21T01:46:01;9.87;;;5.53;;
7493;SDS011;3788;49.902;8.590;2024-02-21T01:48:28;7.20;;;5.10;;
7493;SDS011;3788;49.902;8.590;2024-02-21T01:50:55;11.40;;;5.40;;
7493;SDS011;3788;49.902;8.590;2024-02-21T01:53:24;6.80;;;5.17;;
7493;SDS011;3788;49.902;8.590;2024-02-21T01:55:55;8.93;;;5.80;;
7493;SDS011;3788;49.902;8.590;2024-02-21T01:58:22;11.10;;;5.90;;
7493;SDS011;3788;49.902;8.590;2024-02-21T02:00:49;11.97;;;5.40;;
7493;SDS011;3788;49.902;8.590;2024-02-21T02:03:17;8.47;;;5.57;;
7493;SDS011;3788;49.902;8.590;2024-02-21T02:05:44;10.47;;;5.83;;
7493;SDS011;3788;49.902;8.590;2024-02-21T02:08:11;10.40;;;5.93;;
7493;SDS011;3788;49.902;8.590;2024-02-21T02:10:38;10.10;;;5.67;;
7493;SDS011;3788;49.902;8.590;2024-02-21T02:13:07;8.00;;;5.30;;
7493;SDS011;3788;49.902;8.590;2024-02-21T02:15:40;10.40;;;5.60;;
7493;SDS011;3788;49.902;8.590;2024-02-21T02:18:07;9.77;;;5.80;;
7493;SDS011;3788;49.902;8.590;2024-02-21T02:20:34;7.90;;;6.00;;
7493;SDS011;3788;49.902;8.590;2024-02-21T02:23:01;11.10;;;5.60;;
7493;SDS011;3788;49.902;8.590;2024-02-21T02:25:35;9.63;;;6.30;;
7493;SDS011;3788;49.902;8.590;2024-02-21T02:28:02;11.00;;;6.43;;
7493;SDS011;3788;49.902;8.590;2024-02-21T02:30:31;9.93;;;5.70;;
7493;SDS011;3788;49.902;8.590;2024-02-21T02:32:58;15.53;;;6.83;;
7493;SDS011;3788;49.902;8.590;2024-02-21T02:35:24;9.87;;;5.43;;
7493;SDS011;3788;49.902;8.590;2024-02-21T02:37:51;10.10;;;5.37;;
7493;SDS011;3788;49.902;8.590;2024-02-21T02:40:18;11.10;;;6.20;;
7493;SDS011;3788;49.902;8.590;2024-02-21T02:42:46;13.47;;;5.73;;
7493;SDS011;3788;49.902;8.590;2024-02-21T02:45:14;13.70;;;6.37;;
7493;SDS011;3788;49.902;8.590;2024-02-21T02:47:40;9.00;;;5.53;;
7493;SDS011;3788;49.902;8.590;2024-02-21T02:50:07;11.23;;;6.33;;
7493;SDS011;3788;49.902;8.590;2024-02-21T02:52:34;11.83;;;6.13;;
7493;SDS011;3788;49.902;8.590;2024-02-21T02:55:01;13.17;;;6.10;;
7493;SDS011;3788;49.902;8.590;2024-02-21T02:57:27;10.67;;;6.07;;
7493;SDS011;3788;49.902;8.590;2024-02-21T02:59:55;13.80;;;5.73;;
7493;SDS011;3788;49.902;8.590;2024-02-21T03:02:22;15.30;;;6.23;;
7493;SDS011;3788;49.902;8.590;2024-02-21T03:04:49;10.07;;;5.67;;
7493;SDS011;3788;49.902;8.590;2024-02-21T03:07:16;7.87;;;5.93;;
7493;SDS011;3788;49.902;8.590;2024-02-21T03:09:43;7.30;;;5.77;;
7493;SDS011;3788;49.902;8.590;2024-02-21T03:12:09;10.07;;;6.17;;
7493;SDS011;3788;49.902;8.590;2024-02-21T03:14:36;8.87;;;5.93;;
7493;SDS011;3788;49.902;8.590;2024-02-21T03:17:04;9.33;;;5.57;;
7493;SDS011;3788;49.902;8.590;2024-02-21T03:19:31;8.37;;;5.00;;
7493;SDS011;3788;49.902;8.590;2024-02-21T03:21:58;8.00;;;5.20;;
7493;SDS011;3788;49.902;8.590;2024-02-21T03:24:24;11.67;;;5.53;;
7493;SDS011;3788;49.902;8.590;2024-02-21T03:26:51;12.90;;;5.40;;
7493;SDS011;3788;49.902;8.590;2024-02-21T03:29:17;11.80;;;6.23;;
7493;SDS011;3788;49.902;8.590;2024-02-21T03:31:44;12.13;;;5.10;;
7493;SDS011;3788;49.902;8.590;2024-02-21T03:34:12;9.37;;;5.37;;
7493;SDS011;3788;49.902;8.590;2024-02-21T03:36:38;9.30;;;5.57;;
7493;SDS011;3788;49.902;8.590;2024-02-21T03:39:05;10.20;;;5.53;;
7493;SDS011;3788;49.902;8.590;2024-02-21T03:41:33;11.50;;;4.87;;
7493;SDS011;3788;49.902;8.590;2024-02-21T03:43:59;9.40;;;5.27;;
7493;SDS011;3788;49.902;8.590;2024-02-21T03:46:26;9.47;;;6.10;;
7493;SDS011;3788;49.902;8.590;2024-02-21T03:48:53;8.37;;;5.37;;
7493;SDS011;3788;49.902;8.590;2024-02-21T03:51:21;12.33;;;5.77;;
7493;SDS011;3788;49.902;8.590;2024-02-21T03:53:48;10.33;;;6.00;;
7493;SDS011;3788;49.902;8.590;2024-02-21T03:56:14;11.43;;;5.60;;
7493;SDS011;3788;49.902;8.590;2024-02-21T03:58:41;13.53;;;6.00;;
7493;SDS011;3788;49.902;8.590;2024-02-21T04:01:07;9.33;;;4.90;;
7493;SDS011;3788;49.902;8.590;2024-02-21T04:03:34;10.97;;;5.33;;
7493;SDS011;3788;49.902;8.590;2024-02-21T04:06:01;9.20;;;5.40;;
7493;SDS011;3788;49.902;8.590;2024-02-21T04:08:29;13.13;;;5.70;;
7493;SDS011;3788;49.902;8.590;2024-02-21T04:10:55;9.70;;;5.63;;
7493;SDS011;3788;49.902;8.590;2024-02-21T04:13:22;12.07;;;6.33;;
7493;SDS011;3788;49.902;8.590;2024-02-21T04:15:49;11.03;;;6.63;;
7493;SDS011;3788;49.902;8.590;2024-02-21T04:18:15;7.47;;;5.10;;
7493;SDS011;3788;49.902;8.590;2024-02-21T04:20:42;7.93;;;4.90;;
7493;SDS011;3788;49.902;8.590;2024-02-21T04:23:08;7.40;;;4.77;;
7493;SDS011;3788;49.902;8.590;2024-02-21T04:25:36;7.43;;;4.93;;
7493;SDS011;3788;49.902;8.590;2024-02-21T04:28:03;8.53;;;4.63;;
7493;SDS011;3788;49.902;8.590;2024-02-21T04:30:30;9.37;;;5.40;;
7493;SDS011;3788;49.902;8.590;2024-02-21T04:32:57;11.60;;;5.97;;
7493;SDS011;3788;49.902;8.590;2024-02-21T04:35:24;14.77;;;5.70;;
7493;SDS011;3788;49.902;8.590;2024-02-21T04:37:50;8.70;;;5.17;;
7493;SDS011;3788;49.902;8.590;2024-02-21T04:40:17;9.43;;;5.80;;
7493;SDS011;3788;49.902;8.590;2024-02-21T04:42:45;8.33;;;4.77;;
7493;SDS011;3788;49.902;8.590;2024-02-21T04:45:11;10.20;;;5.20;;
7493;SDS011;3788;49.902;8.590;2024-02-21T04:47:38;9.07;;;5.03;;
7493;SDS011;3788;49.902;8.590;2024-02-21T04:50:05;8.17;;;5.20;;
7493;SDS011;3788;49.902;8.590;2024-02-21T04:52:32;9.60;;;5.13;;
7493;SDS011;3788;49.902;8.590;2024-02-21T04:54:58;9.40;;;5.30;;
7493;SDS011;3788;49.902;8.590;2024-02-21T04:57:25;8.03;;;5.43;;
7493;SDS011;3788;49.902;8.590;2024-02-21T04:59:53;8.63;;;4.90;;
7493;SDS011;3788;49.902;8.590;2024-02-21T05:02:20;8.00;;;4.90;;
7493;SDS011;3788;49.902;8.590;2024-02-21T05:04:49;9.20;;;5.23;;
7493;SDS011;3788;49.902;8.590;2024-02-21T05:07:16;13.23;;;5.47;;
7493;SDS011;3788;49.902;8.590;2024-02-21T05:09:44;9.63;;;5.03;;
7493;SDS011;3788;49.902;8.590;2024-02-21T05:12:11;11.23;;;5.40;;
7493;SDS011;3788;49.902;8.590;2024-02-21T05:14:37;10.30;;;6.27;;
7493;SDS011;3788;49.902;8.590;2024-02-21T05:17:05;8.97;;;5.53;;
7493;SDS011;3788;49.902;8.590;2024-02-21T05:19:32;12.87;;;5.50;;
7493;SDS011;3788;49.902;8.590;2024-02-21T05:21:59;10.37;;;6.00;;
7493;SDS011;3788;49.902;8.590;2024-02-21T05:24:25;10.23;;;5.33;;
7493;SDS011;3788;49.902;8.590;2024-02-21T05:26:53;8.63;;;5.00;;
7493;SDS011;3788;49.902;8.590;2024-02-21T05:29:20;10.70;;;5.20;;
7493;SDS011;3788;49.902;8.590;2024-02-21T05:31:56;11.17;;;4.80;;
7493;SDS011;3788;49.902;8.590;2024-02-21T05:34:25;8.00;;;4.90;;
7493;SDS011;3788;49.902;8.590;2024-02-21T05:36:51;10.00;;;5.30;;
7493;SDS011;3788;49.902;8.590;2024-02-21T05:39:18;9.50;;;5.53;;
7493;SDS011;3788;49.902;8.590;2024-02-21T05:41:47;9.93;;;5.33;;
7493;SDS011;3788;49.902;8.590;2024-02-21T05:44:14;8.07;;;4.97;;
7493;SDS011;3788;49.902;8.590;2024-02-21T05:46:41;10.50;;;6.10;;
7493;SDS011;3788;49.902;8.590;2024-02-21T05:49:07;9.93;;;4.73;;
7493;SDS011;3788;49.902;8.590;2024-02-21T05:51:35;11.70;;;5.77;;
7493;SDS011;3788;49.902;8.590;2024-02-21T05:54:02;9.47;;;5.20;;
7493;SDS011;3788;49.902;8.590;2024-02-21T05:56:29;7.73;;;5.20;;
7493;SDS011;3788;49.902;8.590;2024-02-21T05:58:55;11.40;;;4.97;;
7493;SDS011;3788;49.902;8.590;2024-02-21T06:01:22;6.60;;;4.50;;
7493;SDS011;3788;49.902;8.590;2024-02-21T06:03:49;9.90;;;5.77;;
7493;SDS011;3788;49.902;8.590;2024-02-21T06:06:15;6.73;;;4.57;;
7493;SDS011;3788;49.902;8.590;2024-02-21T06:08:43;7.40;;;4.67;;
7493;SDS011;3788;49.902;8.590;2024-02-21T06:11:10;10.17;;;4.87;;
7493;SDS011;3788;49.902;8.590;2024-02-21T06:13:38;6.40;;;4.53;;
7493;SDS011;3788;49.902;8.590;2024-02-21T06:16:06;5.77;;;4.53;;
7493;SDS011;3788;49.902;8.590;2024-02-21T06:18:35;6.47;;;4.27;;
7493;SDS011;3788;49.902;8.590;2024-02-21T06:21:02;10.60;;;4.50;;
7493;SDS011;3788;49.902;8.590;2024-02-21T06:23:29;6.80;;;4.40;;
7493;SDS011;3788;49.902;8.590;2024-02-21T06:25:57;10.33;;;5.70;;
7493;SDS011;3788;49.902;8.590;2024-02-21T06:28:24;12.97;;;5.40;;
7493;SDS011;3788;49.902;8.590;2024-02-21T06:30:51;9.13;;;4.77;;
7493;SDS011;3788;49.902;8.590;2024-02-21T06:33:18;10.77;;;5.03;;
7493;SDS011;3788;49.902;8.590;2024-02-21T06:35:47;9.43;;;4.27;;
7493;SDS011;3788;49.902;8.590;2024-02-21T06:38:17;7.10;;;5.07;;
7493;SDS011;3788;49.902;8.590;2024-02-21T06:40:43;7.63;;;5.00;;
7493;SDS011;3788;49.902;8.590;2024-02-21T06:43:16;8.10;;;4.83;;
7493;SDS011;3788;49.902;8.590;2024-02-21T06:45:43;5.97;;;4.13;;
7493;SDS011;3788;49.902;8.590;2024-02-21T06:48:12;7.40;;;4.63;;
7493;SDS011;3788;49.902;8.590;2024-02-21T06:50:39;9.40;;;5.93;;
7493;SDS011;3788;49.902;8.590;2024-02-21T06:53:05;5.63;;;4.23;;
7493;SDS011;3788;49.902;8.590;2024-02-21T06:55:32;6.33;;;4.23;;
7493;SDS011;3788;49.902;8.590;2024-02-21T06:57:59;8.33;;;5.40;;
7493;SDS011;3788;49.902;8.590;2024-02-21T07:00:27;8.33;;;4.60;;
7493;SDS011;3788;49.902;8.590;2024-02-21T07:02:54;9.30;;;4.83;;
7493;SDS011;3788;49.902;8.590;2024-02-21T07:05:21;10.20;;;5.03;;
7493;SDS011;3788;49.902;8.590;2024-02-21T07:07:47;9.93;;;4.60;;
7493;SDS011;3788;49.902;8.590;2024-02-21T07:10:14;6.87;;;4.73;;
7493;SDS011;3788;49.902;8.590;2024-02-21T07:12:40;8.60;;;4.70;;
7493;SDS011;3788;49.902;8.590;2024-02-21T07:15:08;8.43;;;4.10;;
7493;SDS011;3788;49.902;8.590;2024-02-21T07:17:36;13.00;;;5.23;;
7493;SDS011;3788;49.902;8.590;2024-02-21T07:20:03;9.43;;;5.50;;
7493;SDS011;3788;49.902;8.590;2024-02-21T07:22:30;9.13;;;4.57;;
7493;SDS011;3788;49.902;8.590;2024-02-21T07:24:56;10.37;;;4.70;;
7493;SDS011;3788;49.902;8.590;2024-02-21T07:27:23;9.37;;;4.97;;
7493;SDS011;3788;49.902;8.590;2024-02-21T07:29:53;9.00;;;5.03;;
7493;SDS011;3788;49.902;8.590;2024-02-21T07:32:19;12.17;;;4.70;;
7493;SDS011;3788;49.902;8.590;2024-02-21T07:34:47;9.70;;;4.47;;
7493;SDS011;3788;49.902;8.590;2024-02-21T07:37:14;8.83;;;4.07;;
7493;SDS011;3788;49.902;8.590;2024-02-21T07:39:40;9.43;;;4.57;;
7493;SDS011;3788;49.902;8.590;2024-02-21T07:42:07;10.83;;;4.97;;
7493;SDS011;3788;49.902;8.590;2024-02-21T07:44:34;6.83;;;4.27;;
7493;SDS011;3788;49.902;8.590;2024-02-21T07:47:01;6.80;;;4.33;;
7493;SDS011;3788;49.902;8.590;2024-02-21T07:49:27;9.33;;;5.37;;
7493;SDS011;3788;49.902;8.590;2024-02-21T07:51:55;9.43;;;4.87;;
7493;SDS011;3788;49.902;8.590;2024-02-21T07:54:22;10.13;;;4.83;;
7493;SDS011;3788;49.902;8.590;2024-02-21T07:56:48;7.30;;;4.13;;
7493;SDS011;3788;49.902;8.590;2024-02-21T07:59:15;8.53;;;4.07;;
7493;SDS011;3788;49.902;8.590;2024-02-21T08:01:42;6.70;;;4.10;;
7493;SDS011;3788;49.902;8.590;2024-02-21T08:04:09;11.20;;;4.90;;
7493;SDS011;3788;49.902;8.590;2024-02-21T08:06:36;5.97;;;4.47;;
7493;SDS011;3788;49.902;8.590;2024-02-21T08:09:04;9.07;;;4.30;;
7493;SDS011;3788;49.902;8.590;2024-02-21T08:11:30;11.70;;;4.47;;
7493;SDS011;3788;49.902;8.590;2024-02-21T08:13:57;6.83;;;4.00;;
7493;SDS011;3788;49.902;8.590;2024-02-21T08:16:24;7.80;;;4.40;;
7493;SDS011;3788;49.902;8.590;2024-02-21T08:18:50;8.80;;;4.50;;
7493;SDS011;3788;49.902;8.590;2024-02-21T08:21:17;9.23;;;4.77;;
7493;SDS011;3788;49.902;8.590;2024-02-21T08:23:44;7.47;;;4.20;;
7493;SDS011;3788;49.902;8.590;2024-02-21T08:26:12;9.70;;;4.10;;
7493;SDS011;3788;49.902;8.590;2024-02-21T08:28:38;9.67;;;4.20;;
7493;SDS011;3788;49.902;8.590;2024-02-21T08:31:05;7.10;;;4.30;;
7493;SDS011;3788;49.902;8.590;2024-02-21T08:33:31;9.23;;;3.67;;
7493;SDS011;3788;49.902;8.590;2024-02-21T08:35:58;9.43;;;4.33;;
7493;SDS011;3788;49.902;8.590;2024-02-21T08:38:25;8.30;;;4.60;;
7493;SDS011;3788;49.902;8.590;2024-02-21T08:40:51;9.30;;;4.87;;
7493;SDS011;3788;49.902;8.590;2024-02-21T08:43:20;9.73;;;4.13;;
7493;SDS011;3788;49.902;8.590;2024-02-21T08:45:46;9.23;;;4.33;;
7493;SDS011;3788;49.902;8.590;2024-02-21T08:48:13;6.57;;;3.53;;
7493;SDS011;3788;49.902;8.590;2024-02-21T08:50:39;7.33;;;3.93;;
7493;SDS011;3788;49.902;8.590;2024-02-21T08:53:06;9.07;;;4.47;;
7493;SDS011;3788;49.902;8.590;2024-02-21T08:55:33;6.90;;;4.10;;
7493;SDS011;3788;49.902;8.590;2024-02-21T08:58:00;10.80;;;3.90;;
7493;SDS011;3788;49.902;8.590;2024-02-21T09:00:30;9.30;;;4.40;;
7493;SDS011;3788;49.902;8.590;2024-02-21T09:02:58;8.17;;;4.10;;
7493;SDS011;3788;49.902;8.590;2024-02-21T09:05:24;8.50;;;4.67;;
7493;SDS011;3788;49.902;8.590;2024-02-21T09:07:51;9.57;;;4.00;;
7493;SDS011;3788;49.902;8.590;2024-02-21T09:10:17;7.87;;;3.53;;
7493;SDS011;3788;49.902;8.590;2024-02-21T09:12:44;5.80;;;3.80;;
7493;SDS011;3788;49.902;8.590;2024-02-21T09:15:12;5.33;;;3.80;;
7493;SDS011;3788;49.902;8.590;2024-02-21T09:17:40;6.80;;;3.43;;
7493;SDS011;3788;49.902;8.590;2024-02-21T09:20:12;5.17;;;3.50;;
7493;SDS011;3788;49.902;8.590;2024-02-21T09:22:41;4.90;;;3.17;;
7493;SDS011;3788;49.902;8.590;2024-02-21T09:25:08;5.40;;;3.00;;
7493;SDS011;3788;49.902;8.590;2024-02-21T09:27:36;4.80;;;3.27;;
7493;SDS011;3788;49.902;8.590;2024-02-21T09:30:04;9.70;;;3.53;;
7493;SDS011;3788;49.902;8.590;2024-02-21T09:32:31;6.97;;;2.93;;
7493;SDS011;3788;49.902;8.590;2024-02-21T09:34:59;9.10;;;3.50;;
7493;SDS011;3788;49.902;8.590;2024-02-21T09:37:26;6.47;;;3.20;;
7493;SDS011;3788;49.902;8.590;2024-02-21T09:39:53;9.13;;;3.30;;
7493;SDS011;3788;49.902;8.590;2024-02-21T09:42:20;9.37;;;3.73;;
7493;SDS011;3788;49.902;8.590;2024-02-21T09:44:47;8.17;;;3.33;;
7493;SDS011;3788;49.902;8.590;2024-02-21T09:47:16;6.73;;;3.50;;
7493;SDS011;3788;49.902;8.590;2024-02-21T09:49:45;6.23;;;3.73;;
7493;SDS011;3788;49.902;8.590;2024-02-21T09:52:14;6.13;;;3.80;;
7493;SDS011;3788;49.902;8.590;2024-02-21T09:54:41;8.27;;;3.87;;
7493;SDS011;3788;49.902;8.590;2024-02-21T09:57:10;7.67;;;3.60;;
7493;SDS011;3788;49.902;8.590;2024-02-21T09:59:37;9.60;;;4.13;;
7493;SDS011;3788;49.902;8.590;2024-02-21T10:02:04;7.37;;;3.97;;
7493;SDS011;3788;49.902;8.590;2024-02-21T10:04:31;7.97;;;3.90;;
7493;SDS011;3788;49.902;8.590;2024-02-21T10:06:58;4.77;;;3.70;;
7493;SDS011;3788;49.902;8.590;2024-02-21T10:09:26;9.60;;;3.37;;
7493;SDS011;3788;49.902;8.590;2024-02-21T10:11:54;5.60;;;3.70;;
7493;SDS011;3788;49.902;8.590;2024-02-21T10:14:21;7.27;;;3.53;;
7493;SDS011;3788;49.902;8.590;2024-02-21T10:16:48;7.63;;;3.93;;
7493;SDS011;3788;49.902;8.590;2024-02-21T10:19:22;6.70;;;3.03;;
7493;SDS011;3788;49.902;8.590;2024-02-21T10:24:33;5.87;;;4.03;;
7493;SDS011;3788;49.902;8.590;2024-02-21T10:27:03;7.17;;;4.40;;
7493;SDS011;3788;49.902;8.590;2024-02-21T10:29:33;5.87;;;3.90;;
7493;SDS011;3788;49.902;8.590;2024-02-21T10:32:03;9.40;;;4.50;;
7493;SDS011;3788;49.902;8.590;2024-02-21T10:34:31;9.47;;;5.07;;
7493;SDS011;3788;49.902;8.590;2024-02-21T10:36:59;5.63;;;3.70;;
7493;SDS011;3788;49.902;8.590;2024-02-21T10:39:27;7.30;;;4.03;;
7493;SDS011;3788;49.902;8.590;2024-02-21T10:41:55;5.50;;;4.00;;
7493;SDS011;3788;49.902;8.590;2024-02-21T10:44:25;8.27;;;3.53;;
7493;SDS011;3788;49.902;8.590;2024-02-21T10:46:54;7.77;;;4.70;;
7493;SDS011;3788;49.902;8.590;2024-02-21T10:49:22;9.23;;;4.30;;
7493;SDS011;3788;49.902;8.590;2024-02-21T10:51:51;11.07;;;5.03;;
7493;SDS011;3788;49.902;8.590;2024-02-21T10:54:30;6.40;;;4.20;;
7493;SDS011;3788;49.902;8.590;2024-02-21T10:57:06;6.77;;;3.87;;
7493;SDS011;3788;49.902;8.590;2024-02-21T10:59:34;5.20;;;3.37;;
7493;SDS011;3788;49.902;8.590;2024-02-21T11:02:03;7.50;;;3.97;;
7493;SDS011;3788;49.902;8.590;2024-02-21T11:04:30;4.10;;;3.70;;
7493;SDS011;3788;49.902;8.590;2024-02-21T11:07:01;13.70;;;4.20;;
7493;SDS011;3788;49.902;8.590;2024-02-21T11:09:29;8.23;;;4.43;;
7493;SDS011;3788;49.902;8.590;2024-02-21T11:11:56;6.20;;;3.60;;
7493;SDS011;3788;49.902;8.590;2024-02-21T11:14:26;7.03;;;3.97;;
7493;SDS011;3788;49.902;8.590;2024-02-21T11:16:53;5.33;;;3.40;;
7493;SDS011;3788;49.902;8.590;2024-02-21T11:19:22;8.63;;;3.90;;
7493;SDS011;3788;49.902;8.590;2024-02-21T11:21:51;11.23;;;3.23;;
7493;SDS011;3788;49.902;8.590;2024-02-21T11:24:26;10.60;;;4.07;;
7493;SDS011;3788;49.902;8.590;2024-02-21T11:26:54;5.73;;;3.53;;
7493;SDS011;3788;49.902;8.590;2024-02-21T11:29:22;11.43;;;3.87;;
7493;SDS011;3788;49.902;8.590;2024-02-21T11:31:51;3.27;;;2.67;;
7493;SDS011;3788;49.902;8.590;2024-02-21T11:34:17;7.83;;;3.50;;
7493;SDS011;3788;49.902;8.590;2024-02-21T11:36:48;5.20;;;3.33;;
7493;SDS011;3788;49.902;8.590;2024-02-21T11:39:21;12.23;;;3.80;;
7493;SDS011;3788;49.902;8.590;2024-02-21T11:44:37;6.40;;;3.63;;
7493;SDS011;3788;49.902;8.590;2024-02-21T11:47:05;5.67;;;3.07;;
7493;SDS011;3788;49.902;8.590;2024-02-21T11:49:35;4.53;;;3.03;;
7493;SDS011;3788;49.902;8.590;2024-02-21T11:52:03;6.07;;;3.40;;
7493;SDS011;3788;49.902;8.590;2024-02-21T11:54:30;6.70;;;3.10;;
7493;SDS011;3788;49.902;8.590;2024-02-21T11:56:57;6.00;;;3.17;;
7493;SDS011;3788;49.902;8.590;2024-02-21T11:59:24;6.63;;;3.20;;
7493;SDS011;3788;49.902;8.590;2024-02-21T12:01:52;7.00;;;3.40;;
7493;SDS011;3788;49.902;8.590;2024-02-21T12:04:19;7.00;;;2.90;;
7493;SDS011;3788;49.902;8.590;2024-02-21T12:06:48;8.40;;;3.10;;
7493;SDS011;3788;49.902;8.590;2024-02-21T12:09:16;5.00;;;3.20;;
7493;SDS011;3788;49.902;8.590;2024-02-21T12:11:42;7.43;;;2.73;;
7493;SDS011;3788;49.902;8.590;2024-02-21T12:14:10;4.63;;;2.57;;
7493;SDS011;3788;49.902;8.590;2024-02-21T12:16:44;7.00;;;3.00;;
7493;SDS011;3788;49.902;8.590;2024-02-21T12:19:14;6.33;;;2.80;;
7493;SDS011;3788;49.902;8.590;2024-02-21T12:21:41;6.47;;;3.43;;
7493;SDS011;3788;49.902;8.590;2024-02-21T12:24:12;8.80;;;3.00;;
7493;SDS011;3788;49.902;8.590;2024-02-21T12:26:40;6.83;;;2.77;;
7493;SDS011;3788;49.902;8.590;2024-02-21T12:29:07;8.03;;;3.00;;
7493;SDS011;3788;49.902;8.590;2024-02-21T12:31:35;9.17;;;2.80;;
7493;SDS011;3788;49.902;8.590;2024-02-21T12:34:02;6.60;;;2.83;;
7493;SDS011;3788;49.902;8.590;2024-02-21T12:36:30;5.93;;;2.73;;
7493;SDS011;3788;49.902;8.590;2024-02-21T12:38:57;5.70;;;2.53;;
7493;SDS011;3788;49.902;8.590;2024-02-21T12:41:24;6.50;;;2.70;;
7493;SDS011;3788;49.902;8.590;2024-02-21T12:43:52;9.63;;;3.00;;
7493;SDS011;3788;49.902;8.590;2024-02-21T12:46:18;5.30;;;2.53;;
7493;SDS011;3788;49.902;8.590;2024-02-21T12:48:47;4.47;;;2.73;;
7493;SDS011;3788;49.902;8.590;2024-02-21T12:51:14;6.93;;;3.37;;
7493;SDS011;3788;49.902;8.590;2024-02-21T12:53:47;7.07;;;2.73;;
7493;SDS011;3788;49.902;8.590;2024-02-21T12:56:14;6.80;;;3.37;;
7493;SDS011;3788;49.902;8.590;2024-02-21T12:58:41;5.23;;;3.00;;
7493;SDS011;3788;49.902;8.590;2024-02-21T13:01:08;6.23;;;2.80;;
7493;SDS011;3788;49.902;8.590;2024-02-21T13:03:35;6.03;;;2.80;;
7493;SDS011;3788;49.902;8.590;2024-02-21T13:06:01;6.03;;;3.37;;
7493;SDS011;3788;49.902;8.590;2024-02-21T13:08:28;6.23;;;3.23;;
7493;SDS011;3788;49.902;8.590;2024-02-21T13:10:57;7.73;;;3.37;;
7493;SDS011;3788;49.902;8.590;2024-02-21T13:13:24;5.60;;;2.63;;
7493;SDS011;3788;49.902;8.590;2024-02-21T13:15:50;4.80;;;2.47;;
7493;SDS011;3788;49.902;8.590;2024-02-21T13:18:17;7.93;;;2.70;;
7493;SDS011;3788;49.902;8.590;2024-02-21T13:20:43;7.30;;;2.90;;
7493;SDS011;3788;49.902;8.590;2024-02-21T13:23:10;5.73;;;2.73;;
7493;SDS011;3788;49.902;8.590;2024-02-21T13:25:37;7.87;;;3.40;;
7493;SDS011;3788;49.902;8.590;2024-02-21T13:28:05;6.70;;;2.80;;
7493;SDS011;3788;49.902;8.590;2024-02-21T13:30:34;4.57;;;2.70;;
7493;SDS011;3788;49.902;8.590;2024-02-21T13:33:01;4.73;;;2.60;;
7493;SDS011;3788;49.902;8.590;2024-02-21T13:35:28;6.33;;;2.40;;
7493;SDS011;3788;49.902;8.590;2024-02-21T13:37:55;5.63;;;2.47;;
7493;SDS011;3788;49.902;8.590;2024-02-21T13:40:22;6.23;;;2.97;;
7493;SDS011;3788;49.902;8.590;2024-02-21T13:42:50;5.70;;;2.43;;
7493;SDS011;3788;49.902;8.590;2024-02-21T13:45:20;6.13;;;2.90;;
7493;SDS011;3788;49.902;8.590;2024-02-21T13:47:47;2.50;;;2.13;;
7493;SDS011;3788;49.902;8.590;2024-02-21T13:50:16;5.43;;;2.40;;
7493;SDS011;3788;49.902;8.590;2024-02-21T13:52:43;6.27;;;2.83;;
7493;SDS011;3788;49.902;8.590;2024-02-21T13:55:10;5.73;;;2.87;;
7493;SDS011;3788;49.902;8.590;2024-02-21T13:57:37;4.90;;;2.63;;
7493;SDS011;3788;49.902;8.590;2024-02-21T14:00:04;5.70;;;2.87;;
7493;SDS011;3788;49.902;8.590;2024-02-21T14:02:37;5.23;;;2.47;;
7493;SDS011;3788;49.902;8.590;2024-02-21T14:05:04;6.73;;;2.90;;
7493;SDS011;3788;49.902;8.590;2024-02-21T14:07:31;4.90;;;2.53;;
7493;SDS011;3788;49.902;8.590;2024-02-21T14:09:58;5.10;;;2.50;;
7493;SDS011;3788;49.902;8.590;2024-02-21T14:12:25;5.33;;;2.40;;
7493;SDS011;3788;49.902;8.590;2024-02-21T14:14:51;5.43;;;2.23;;
7493;SDS011;3788;49.902;8.590;2024-02-21T14:17:18;5.37;;;2.57;;
7493;SDS011;3788;49.902;8.590;2024-02-21T14:19:46;5.33;;;2.30;;
7493;SDS011;3788;49.902;8.590;2024-02-21T14:22:13;5.63;;;2.33;;
7493;SDS011;3788;49.902;8.590;2024-02-21T14:24:39;6.67;;;3.27;;
7493;SDS011;3788;49.902;8.590;2024-02-21T14:27:07;5.37;;;2.17;;
7493;SDS011;3788;49.902;8.590;2024-02-21T14:29:33;5.20;;;3.00;;
7493;SDS011;3788;49.902;8.590;2024-02-21T14:32:01;6.40;;;2.63;;
7493;SDS011;3788;49.902;8.590;2024-02-21T14:34:28;4.30;;;2.90;;
7493;SDS011;3788;49.902;8.590;2024-02-21T14:36:56;7.90;;;3.03;;
7493;SDS011;3788;49.902;8.590;2024-02-21T14:39:22;5.97;;;2.63;;
7493;SDS011;3788;49.902;8.590;2024-02-21T14:41:49;7.37;;;2.87;;
7493;SDS011;3788;49.902;8.590;2024-02-21T14:44:15;6.87;;;2.33;;
7493;SDS011;3788;49.902;8.590;2024-02-21T14:46:42;5.30;;;2.53;;
7493;SDS011;3788;49.902;8.590;2024-02-21T14:49:09;6.10;;;2.50;;
7493;SDS011;3788;49.902;8.590;2024-02-21T14:51:36;4.90;;;2.70;;
7493;SDS011;3788;49.902;8.590;2024-02-21T14:54:04;3.80;;;2.20;;
7493;SDS011;3788;49.902;8.590;2024-02-21T14:56:31;6.07;;;2.40;;
7493;SDS011;3788;49.902;8.590;2024-02-21T14:58:57;5.00;;;2.00;;
7493;SDS011;3788;49.902;8.590;2024-02-21T15:01:24;6.83;;;2.37;;
7493;SDS011;3788;49.902;8.590;2024-02-21T15:03:51;7.07;;;2.27;;
7493;SDS011;3788;49.902;8.590;2024-02-21T15:06:17;4.37;;;2.33;;
7493;SDS011;3788;49.902;8.590;2024-02-21T15:08:44;4.87;;;2.50;;
7493;SDS011;3788;49.902;8.590;2024-02-21T15:11:12;5.77;;;2.50;;
7493;SDS011;3788;49.902;8.590;2024-02-21T15:13:39;5.47;;;2.60;;
7493;SDS011;3788;49.902;8.590;2024-02-21T15:16:06;7.47;;;2.50;;
7493;SDS011;3788;49.902;8.590;2024-02-21T15:18:32;5.40;;;2.77;;